Takaya — VG2773 — position and weather

sailwx.info

Track history (hours):
 
Tides and Currents Weather Stations Pressure Air Temp Water Temp Dewpoint Dewpoint Depression Visibility Wind Speed Wind Dir Waves Ship Positions

Takaya

Last reported at 2016-Aug-28 11:33 UTC. Time now 2016-Aug-28 12:14 UTC.
Position N 49°17' W 123°06'.

; draft 1.4 m.

Type: Port tender. MMSI: 316014014.

Date/timePositionNaut miles runAvg speedWind from/ knotsBaromVisibWave heightAir tempDewpointWater temp
2016-Aug-28 11:33N 49°17' W 123°06'0 0.0
2016-Aug-28 10:34N 49°17' W 123°06'0 0.0
2016-Aug-28 09:31N 49°17' W 123°06'0 0.0
2016-Aug-28 08:33N 49°17' W 123°06'0 0.0
2016-Aug-28 07:34N 49°17' W 123°06'0 0.0
2016-Aug-28 06:33N 49°17' W 123°06'0 0.0
2016-Aug-28 05:34N 49°17' W 123°06'0 0.0
2016-Aug-28 04:33N 49°17' W 123°06'0 0.0
2016-Aug-28 03:33N 49°17' W 123°06'0 0.0
2016-Aug-28 02:34N 49°17' W 123°06'0 0.0
2016-Aug-28 01:33N 49°17' W 123°06'0 0.0
2016-Aug-28 00:33N 49°17' W 123°06'0 0.0
2016-Aug-27 23:34N 49°17' W 123°06'0 0.0
2016-Aug-27 22:34N 49°17' W 123°06'0 0.0
2016-Aug-27 21:34N 49°17' W 123°06'5 5.3
2016-Aug-27 20:33N 49°18' W 122°58'3 2.7
2016-Aug-27 19:33N 49°19' W 122°55'3 2.6
2016-Aug-27 18:34N 49°17' W 122°52'8 8.5
2016-Aug-27 17:33N 49°18' W 123°05'1 0.8
2016-Aug-27 16:33N 49°17' W 123°06'0 0.0
2016-Aug-27 15:33N 49°17' W 123°06'0 0.0
2016-Aug-27 14:33N 49°17' W 123°06'0 0.0
2016-Aug-27 13:33N 49°17' W 123°06'0 0.0
2016-Aug-27 12:33N 49°17' W 123°06'0 0.0
2016-Aug-27 11:33N 49°17' W 123°06'0 0.0
2016-Aug-27 10:33N 49°17' W 123°06'0 0.0
2016-Aug-27 09:29N 49°17' W 123°06'0 0.0
2016-Aug-27 08:33N 49°17' W 123°06'0 0.0
2016-Aug-27 07:33N 49°17' W 123°06'0 0.0
2016-Aug-27 06:33N 49°17' W 123°06'0 0.0
2016-Aug-27 04:33N 49°17' W 123°06'0 0.0
2016-Aug-27 03:33N 49°17' W 123°06'0 0.0
2016-Aug-27 02:33N 49°17' W 123°06'0 0.0
2016-Aug-27 01:33N 49°17' W 123°06'0 0.0
2016-Aug-27 00:32N 49°17' W 123°06'0 0.0
2016-Aug-26 23:33N 49°17' W 123°06'0 0.0
2016-Aug-26 22:33N 49°17' W 123°06'0 0.0
2016-Aug-26 21:32N 49°17' W 123°06'0 0.0
2016-Aug-26 20:33N 49°17' W 123°06'0 0.0
2016-Aug-26 19:33N 49°17' W 123°06'0 0.0
2016-Aug-26 18:09N 49°17' W 123°06'0 0.1
2016-Aug-26 17:33N 49°17' W 123°06'0 0.0
2016-Aug-26 16:33N 49°17' W 123°06'0 0.0
2016-Aug-26 15:33N 49°17' W 123°06'0 0.0
2016-Aug-26 14:33N 49°17' W 123°06'0 0.0
2016-Aug-26 13:31N 49°17' W 123°06'0 0.0
2016-Aug-26 12:32N 49°17' W 123°06'0 0.0
2016-Aug-26 11:33N 49°17' W 123°06'0 0.0
2016-Aug-26 10:33N 49°17' W 123°06'0 0.0
2016-Aug-26 09:33N 49°17' W 123°06'0 0.0
2016-Aug-26 08:33N 49°17' W 123°06'0 0.0
2016-Aug-26 07:34N 49°17' W 123°06'0 0.0
2016-Aug-26 06:30N 49°17' W 123°06'0 0.0
2016-Aug-26 04:33N 49°17' W 123°06'0 0.0
2016-Aug-26 03:33N 49°17' W 123°06'0 0.0
2016-Aug-26 02:33N 49°17' W 123°06'0 0.0
2016-Aug-26 01:26N 49°17' W 123°06'0 0.0
2016-Aug-26 00:33N 49°17' W 123°06'0 0.0
2016-Aug-25 23:33N 49°17' W 123°06'0 0.0
2016-Aug-25 22:31N 49°17' W 123°06'1 0.8
2016-Aug-25 21:34N 49°17' W 123°07'0 0.5
2016-Aug-25 20:33N 49°17' W 123°06'0 0.3
2016-Aug-25 19:33N 49°17' W 123°06'9 8.7
2016-Aug-25 18:33N 49°18' W 122°53'3 2.7
2016-Aug-25 17:33N 49°18' W 122°57'4 3.6
2016-Aug-25 16:33N 49°17' W 122°51'10 9.7
2016-Aug-25 15:33N 49°17' W 123°06'0 0.0
2016-Aug-25 14:33N 49°17' W 123°06'0 0.0
2016-Aug-25 13:31N 49°17' W 123°06'0 0.0
2016-Aug-25 12:33N 49°17' W 123°06'0 0.0
2016-Aug-25 11:32N 49°17' W 123°06'0 0.0
2016-Aug-25 10:31N 49°17' W 123°06'0 0.0
2016-Aug-25 09:33N 49°17' W 123°06'0 0.0
2016-Aug-25 08:33N 49°17' W 123°06'0 0.0
2016-Aug-25 07:33N 49°17' W 123°06'0 0.0
2016-Aug-25 06:33N 49°17' W 123°06'0 0.0
2016-Aug-25 04:33N 49°17' W 123°06'0 0.0
2016-Aug-25 03:30N 49°17' W 123°06'0 0.0
2016-Aug-25 02:33N 49°17' W 123°06'0 0.0
2016-Aug-25 01:33N 49°17' W 123°06'0 0.0
2016-Aug-25 00:33N 49°17' W 123°06'0 0.0
2016-Aug-24 23:33N 49°17' W 123°06'0 0.0
2016-Aug-24 22:33N 49°17' W 123°06'0 0.0
2016-Aug-24 21:33N 49°17' W 123°06'0 0.0
2016-Aug-24 20:33N 49°17' W 123°06'0 0.0
2016-Aug-24 19:33N 49°17' W 123°06'0 0.0
2016-Aug-24 18:26N 49°17' W 123°06'0 0.0
2016-Aug-24 17:32N 49°17' W 123°06'0 0.0
2016-Aug-24 16:33N 49°17' W 123°06'0 0.0
2016-Aug-24 15:32N 49°17' W 123°06'0 0.0
2016-Aug-24 14:33N 49°17' W 123°06'0 0.0
2016-Aug-24 13:33N 49°17' W 123°06'0 0.0
2016-Aug-24 12:33N 49°17' W 123°06'0 0.0
2016-Aug-24 11:32N 49°17' W 123°06'0 0.0
2016-Aug-24 10:32N 49°17' W 123°06'0 0.0
2016-Aug-24 09:33N 49°17' W 123°06'0 0.0
2016-Aug-24 08:33N 49°17' W 123°06'0 0.0
2016-Aug-24 07:33N 49°17' W 123°06'0 0.0
2016-Aug-24 06:33N 49°17' W 123°06'0 0.0
2016-Aug-24 04:33N 49°17' W 123°06'0 0.0
2016-Aug-24 03:33N 49°17' W 123°06'0 0.0
2016-Aug-24 02:33N 49°17' W 123°06'0 0.0
2016-Aug-24 01:33N 49°17' W 123°06'0 0.0
2016-Aug-24 00:34N 49°17' W 123°06'0 0.0
2016-Aug-23 23:33N 49°17' W 123°06'0 0.0
2016-Aug-23 22:33N 49°17' W 123°06'0 0.0
2016-Aug-23 21:33N 49°17' W 123°06'0 0.0
2016-Aug-23 20:33N 49°17' W 123°06'0 0.0
2016-Aug-23 19:33N 49°17' W 123°06'2 1.9
2016-Aug-23 18:33N 49°19' W 123°08'2 1.8
2016-Aug-23 17:34N 49°19' W 123°10'3 3.2
2016-Aug-23 16:33N 49°17' W 123°07'1 0.9
2016-Aug-23 15:33N 49°17' W 123°05'1 1.2
2016-Aug-23 14:33N 49°18' W 123°07'1 0.9
2016-Aug-23 13:33N 49°17' W 123°06'0 0.0
2016-Aug-23 12:33N 49°17' W 123°06'0 0.0
2016-Aug-23 11:33N 49°17' W 123°06'0 0.0
2016-Aug-23 10:32N 49°17' W 123°06'0 0.0
2016-Aug-23 09:33N 49°17' W 123°06'0 0.0
2016-Aug-23 08:33N 49°17' W 123°06'0 0.0
2016-Aug-23 07:33N 49°17' W 123°06'0 0.0
2016-Aug-23 06:33N 49°17' W 123°06'0 0.0
2016-Aug-23 05:33N 49°17' W 123°06'0 0.0
2016-Aug-23 04:33N 49°17' W 123°06'0 0.0
2016-Aug-23 03:33N 49°17' W 123°06'0 0.0
2016-Aug-23 02:32N 49°17' W 123°06'0 0.0
2016-Aug-23 01:33N 49°17' W 123°06'0 0.0
2016-Aug-23 00:33N 49°17' W 123°06'0 0.0
2016-Aug-22 23:33N 49°17' W 123°06'0 0.0
2016-Aug-22 22:31N 49°17' W 123°06'0 0.0
2016-Aug-22 21:33N 49°17' W 123°06'0 0.0
2016-Aug-22 20:33N 49°17' W 123°06'1 0.6
2016-Aug-22 19:34N 49°17' W 123°05'1110.7
2016-Aug-22 18:33N 49°24' W 122°52'8 8.0
2016-Aug-22 17:33N 49°18' W 122°59'4 4.3
2016-Aug-22 16:33N 49°17' W 123°06'0 0.0
2016-Aug-22 15:33N 49°17' W 123°06'0 0.0
2016-Aug-22 14:33N 49°17' W 123°06'0 0.0
2016-Aug-22 13:34N 49°17' W 123°06'0 0.0
2016-Aug-22 12:33N 49°17' W 123°06'0 0.0
2016-Aug-22 11:33N 49°17' W 123°06'0 0.0
2016-Aug-22 10:33N 49°17' W 123°06'0 0.0
2016-Aug-22 09:34N 49°17' W 123°06'0 0.0
2016-Aug-22 08:33N 49°17' W 123°06'0 0.0
2016-Aug-22 07:33N 49°17' W 123°06'0 0.0
2016-Aug-22 06:33N 49°17' W 123°06'0 0.0
2016-Aug-22 05:34N 49°17' W 123°06'0 0.0
2016-Aug-22 04:33N 49°17' W 123°06'0 0.0
2016-Aug-22 03:33N 49°17' W 123°06'0 0.0
2016-Aug-22 02:30N 49°17' W 123°06'0 0.0
2016-Aug-22 01:34N 49°17' W 123°06'0 0.0
2016-Aug-22 00:33N 49°17' W 123°06'0 0.0
2016-Aug-21 23:34N 49°17' W 123°06'0 0.0
2016-Aug-21 22:19N 49°17' W 123°06'0 0.0
2016-Aug-21 21:33N 49°17' W 123°06'0 0.0
2016-Aug-21 20:17N 49°17' W 123°06'0 0.1
2016-Aug-21 19:33N 49°17' W 123°06'0 0.0
2016-Aug-21 18:30N 49°17' W 123°06'0 0.0
2016-Aug-21 17:32N 49°17' W 123°06'0 0.0
2016-Aug-21 16:33N 49°17' W 123°06'0 0.0
2016-Aug-21 15:32N 49°17' W 123°06'0 0.0
2016-Aug-21 14:33N 49°17' W 123°06'0 0.0
2016-Aug-21 13:33N 49°17' W 123°06'0 0.0
2016-Aug-21 12:33N 49°17' W 123°06'0 0.0
2016-Aug-21 11:33N 49°17' W 123°06'0 0.0
2016-Aug-21 10:32N 49°17' W 123°06'0 0.0
2016-Aug-21 09:33N 49°17' W 123°06'0 0.0
2016-Aug-21 08:33N 49°17' W 123°06'0 0.0
2016-Aug-21 07:31N 49°17' W 123°06'0 0.0
2016-Aug-21 06:32N 49°17' W 123°06'0 0.0
2016-Aug-21 05:33N 49°17' W 123°06'0 0.0
2016-Aug-21 04:33N 49°17' W 123°06'0 0.0
2016-Aug-21 03:34N 49°17' W 123°06'0 0.0
2016-Aug-21 02:32N 49°17' W 123°06'0 0.0
2016-Aug-21 01:32N 49°17' W 123°06'0 0.0
2016-Aug-21 00:33N 49°17' W 123°06'0 0.0
2016-Aug-20 23:33N 49°17' W 123°06'0 0.0
2016-Aug-20 22:29N 49°17' W 123°06'0 0.0
2016-Aug-20 21:34N 49°17' W 123°06'0 0.0
2016-Aug-20 20:25N 49°17' W 123°06'0 0.0
2016-Aug-20 19:33N 49°17' W 123°06'0 0.0
2016-Aug-20 18:29N 49°17' W 123°06'0 0.1
2016-Aug-20 17:31N 49°17' W 123°06'0 0.0
2016-Aug-20 16:34N 49°17' W 123°06'0 0.0
2016-Aug-20 15:33N 49°17' W 123°06'0 0.0
2016-Aug-20 14:32N 49°17' W 123°06'0 0.0
2016-Aug-20 13:33N 49°17' W 123°06'0 0.0
2016-Aug-20 12:33N 49°17' W 123°06'0 0.0
2016-Aug-20 11:33N 49°17' W 123°06'0 0.0
2016-Aug-20 10:33N 49°17' W 123°06'0 0.0
2016-Aug-20 09:33N 49°17' W 123°06'0 0.0
2016-Aug-20 08:34N 49°17' W 123°06'0 0.0
2016-Aug-20 07:32N 49°17' W 123°06'0 0.0
2016-Aug-20 06:33N 49°17' W 123°06'0 0.0
2016-Aug-20 05:33N 49°17' W 123°06'0 0.0
2016-Aug-20 04:33N 49°17' W 123°06'0 0.0
2016-Aug-20 03:33N 49°17' W 123°06'0 0.0
2016-Aug-20 02:28N 49°17' W 123°06'0 0.0
2016-Aug-20 01:34N 49°17' W 123°06'0 0.0
2016-Aug-20 00:34N 49°17' W 123°06'0 0.0
2016-Aug-19 23:33N 49°17' W 123°06'0 0.0
2016-Aug-19 21:33N 49°17' W 123°06'0 0.0
2016-Aug-19 20:31N 49°17' W 123°06'0 0.0
2016-Aug-19 19:32N 49°17' W 123°06'0 0.0
2016-Aug-19 18:32N 49°17' W 123°06'0 0.1
2016-Aug-19 17:33N 49°17' W 123°06'3 3.4
2016-Aug-19 16:33N 49°18' W 123°01'3 3.4
2016-Aug-19 15:34N 49°17' W 123°06'0 0.0
2016-Aug-19 14:33N 49°17' W 123°06'0 0.0
2016-Aug-19 13:31N 49°17' W 123°06'0 0.0
2016-Aug-19 12:33N 49°17' W 123°06'0 0.0
2016-Aug-19 11:29N 49°17' W 123°06'0 0.0
2016-Aug-19 10:33N 49°17' W 123°06'0 0.0
2016-Aug-19 09:34N 49°17' W 123°06'0 0.0
2016-Aug-19 08:33N 49°17' W 123°06'0 0.0
2016-Aug-19 07:33N 49°17' W 123°06'0 0.0
2016-Aug-19 06:28N 49°17' W 123°06'0 0.0
2016-Aug-19 05:33N 49°17' W 123°06'0 0.0
2016-Aug-19 04:33N 49°17' W 123°06'0 0.0
2016-Aug-19 03:33N 49°17' W 123°06'0 0.0
2016-Aug-19 02:32N 49°17' W 123°06'0 0.0
2016-Aug-19 01:33N 49°17' W 123°06'0 0.0
2016-Aug-19 00:33N 49°17' W 123°06'0 0.0
2016-Aug-18 23:33N 49°17' W 123°06'0 0.0
2016-Aug-18 22:08N 49°17' W 123°06'0 0.0
2016-Aug-18 21:31N 49°17' W 123°06'0 0.0
2016-Aug-18 20:29N 49°17' W 123°06'0 0.0
2016-Aug-18 19:34N 49°17' W 123°06'0 0.0
2016-Aug-18 18:33N 49°17' W 123°06'0 0.0
2016-Aug-18 17:33N 49°17' W 123°06'1 0.6
2016-Aug-18 16:33N 49°18' W 123°06'1 0.5
2016-Aug-18 15:33N 49°17' W 123°07'0 0.4
2016-Aug-18 14:33N 49°17' W 123°06'0 0.0
2016-Aug-18 13:33N 49°17' W 123°06'0 0.0
2016-Aug-18 12:33N 49°17' W 123°06'  
Track history (hours):
 
Tides and Currents Weather Stations Pressure Air Temp Water Temp Dewpoint Dewpoint Depression Visibility Wind Speed Wind Dir Waves Ship Positions

Takaya

Last reported at 2016-Aug-28 11:33 UTC. Time now 2016-Aug-28 12:14 UTC.
Position N 49°17' W 123°06'.

; draft 1.4 m.

Type: Port tender. MMSI: 316014014.

Date/timePositionNaut miles runAvg speedWind from/ knotsBaromVisibWave heightAir tempDewpointWater temp
2016-Aug-28 11:33N 49°17' W 123°06'0 0.0
2016-Aug-28 10:34N 49°17' W 123°06'0 0.0
2016-Aug-28 09:31N 49°17' W 123°06'0 0.0
2016-Aug-28 08:33N 49°17' W 123°06'0 0.0
2016-Aug-28 07:34N 49°17' W 123°06'0 0.0
2016-Aug-28 06:33N 49°17' W 123°06'0 0.0
2016-Aug-28 05:34N 49°17' W 123°06'0 0.0
2016-Aug-28 04:33N 49°17' W 123°06'0 0.0
2016-Aug-28 03:33N 49°17' W 123°06'0 0.0
2016-Aug-28 02:34N 49°17' W 123°06'0 0.0
2016-Aug-28 01:33N 49°17' W 123°06'0 0.0
2016-Aug-28 00:33N 49°17' W 123°06'0 0.0
2016-Aug-27 23:34N 49°17' W 123°06'0 0.0
2016-Aug-27 22:34N 49°17' W 123°06'0 0.0
2016-Aug-27 21:34N 49°17' W 123°06'5 5.3
2016-Aug-27 20:33N 49°18' W 122°58'3 2.7
2016-Aug-27 19:33N 49°19' W 122°55'3 2.6
2016-Aug-27 18:34N 49°17' W 122°52'8 8.5
2016-Aug-27 17:33N 49°18' W 123°05'1 0.8
2016-Aug-27 16:33N 49°17' W 123°06'0 0.0
2016-Aug-27 15:33N 49°17' W 123°06'0 0.0
2016-Aug-27 14:33N 49°17' W 123°06'0 0.0
2016-Aug-27 13:33N 49°17' W 123°06'0 0.0
2016-Aug-27 12:33N 49°17' W 123°06'0 0.0
2016-Aug-27 11:33N 49°17' W 123°06'0 0.0
2016-Aug-27 10:33N 49°17' W 123°06'0 0.0
2016-Aug-27 09:29N 49°17' W 123°06'0 0.0
2016-Aug-27 08:33N 49°17' W 123°06'0 0.0
2016-Aug-27 07:33N 49°17' W 123°06'0 0.0
2016-Aug-27 06:33N 49°17' W 123°06'0 0.0
2016-Aug-27 04:33N 49°17' W 123°06'0 0.0
2016-Aug-27 03:33N 49°17' W 123°06'0 0.0
2016-Aug-27 02:33N 49°17' W 123°06'0 0.0
2016-Aug-27 01:33N 49°17' W 123°06'0 0.0
2016-Aug-27 00:32N 49°17' W 123°06'0 0.0
2016-Aug-26 23:33N 49°17' W 123°06'0 0.0
2016-Aug-26 22:33N 49°17' W 123°06'0 0.0
2016-Aug-26 21:32N 49°17' W 123°06'0 0.0
2016-Aug-26 20:33N 49°17' W 123°06'0 0.0
2016-Aug-26 19:33N 49°17' W 123°06'0 0.0
2016-Aug-26 18:09N 49°17' W 123°06'0 0.1
2016-Aug-26 17:33N 49°17' W 123°06'0 0.0
2016-Aug-26 16:33N 49°17' W 123°06'0 0.0
2016-Aug-26 15:33N 49°17' W 123°06'0 0.0
2016-Aug-26 14:33N 49°17' W 123°06'0 0.0
2016-Aug-26 13:31N 49°17' W 123°06'0 0.0
2016-Aug-26 12:32N 49°17' W 123°06'0 0.0
2016-Aug-26 11:33N 49°17' W 123°06'0 0.0
2016-Aug-26 10:33N 49°17' W 123°06'0 0.0
2016-Aug-26 09:33N 49°17' W 123°06'0 0.0
2016-Aug-26 08:33N 49°17' W 123°06'0 0.0
2016-Aug-26 07:34N 49°17' W 123°06'0 0.0
2016-Aug-26 06:30N 49°17' W 123°06'0 0.0
2016-Aug-26 04:33N 49°17' W 123°06'0 0.0
2016-Aug-26 03:33N 49°17' W 123°06'0 0.0
2016-Aug-26 02:33N 49°17' W 123°06'0 0.0
2016-Aug-26 01:26N 49°17' W 123°06'0 0.0
2016-Aug-26 00:33N 49°17' W 123°06'0 0.0
2016-Aug-25 23:33N 49°17' W 123°06'0 0.0
2016-Aug-25 22:31N 49°17' W 123°06'1 0.8
2016-Aug-25 21:34N 49°17' W 123°07'0 0.5
2016-Aug-25 20:33N 49°17' W 123°06'0 0.3
2016-Aug-25 19:33N 49°17' W 123°06'9 8.7
2016-Aug-25 18:33N 49°18' W 122°53'3 2.7
2016-Aug-25 17:33N 49°18' W 122°57'4 3.6
2016-Aug-25 16:33N 49°17' W 122°51'10 9.7
2016-Aug-25 15:33N 49°17' W 123°06'0 0.0
2016-Aug-25 14:33N 49°17' W 123°06'0 0.0
2016-Aug-25 13:31N 49°17' W 123°06'0 0.0
2016-Aug-25 12:33N 49°17' W 123°06'0 0.0
2016-Aug-25 11:32N 49°17' W 123°06'0 0.0
2016-Aug-25 10:31N 49°17' W 123°06'0 0.0
2016-Aug-25 09:33N 49°17' W 123°06'0 0.0
2016-Aug-25 08:33N 49°17' W 123°06'0 0.0
2016-Aug-25 07:33N 49°17' W 123°06'0 0.0
2016-Aug-25 06:33N 49°17' W 123°06'0 0.0
2016-Aug-25 04:33N 49°17' W 123°06'0 0.0
2016-Aug-25 03:30N 49°17' W 123°06'0 0.0
2016-Aug-25 02:33N 49°17' W 123°06'0 0.0
2016-Aug-25 01:33N 49°17' W 123°06'0 0.0
2016-Aug-25 00:33N 49°17' W 123°06'0 0.0
2016-Aug-24 23:33N 49°17' W 123°06'0 0.0
2016-Aug-24 22:33N 49°17' W 123°06'0 0.0
2016-Aug-24 21:33N 49°17' W 123°06'0 0.0
2016-Aug-24 20:33N 49°17' W 123°06'0 0.0
2016-Aug-24 19:33N 49°17' W 123°06'0 0.0
2016-Aug-24 18:26N 49°17' W 123°06'0 0.0
2016-Aug-24 17:32N 49°17' W 123°06'0 0.0
2016-Aug-24 16:33N 49°17' W 123°06'0 0.0
2016-Aug-24 15:32N 49°17' W 123°06'0 0.0
2016-Aug-24 14:33N 49°17' W 123°06'0 0.0
2016-Aug-24 13:33N 49°17' W 123°06'0 0.0
2016-Aug-24 12:33N 49°17' W 123°06'0 0.0
2016-Aug-24 11:32N 49°17' W 123°06'0 0.0
2016-Aug-24 10:32N 49°17' W 123°06'0 0.0
2016-Aug-24 09:33N 49°17' W 123°06'0 0.0
2016-Aug-24 08:33N 49°17' W 123°06'0 0.0
2016-Aug-24 07:33N 49°17' W 123°06'0 0.0
2016-Aug-24 06:33N 49°17' W 123°06'0 0.0
2016-Aug-24 04:33N 49°17' W 123°06'0 0.0
2016-Aug-24 03:33N 49°17' W 123°06'0 0.0
2016-Aug-24 02:33N 49°17' W 123°06'0 0.0
2016-Aug-24 01:33N 49°17' W 123°06'0 0.0
2016-Aug-24 00:34N 49°17' W 123°06'0 0.0
2016-Aug-23 23:33N 49°17' W 123°06'0 0.0
2016-Aug-23 22:33N 49°17' W 123°06'0 0.0
2016-Aug-23 21:33N 49°17' W 123°06'0 0.0
2016-Aug-23 20:33N 49°17' W 123°06'0 0.0
2016-Aug-23 19:33N 49°17' W 123°06'2 1.9
2016-Aug-23 18:33N 49°19' W 123°08'2 1.8
2016-Aug-23 17:34N 49°19' W 123°10'3 3.2
2016-Aug-23 16:33N 49°17' W 123°07'1 0.9
2016-Aug-23 15:33N 49°17' W 123°05'1 1.2
2016-Aug-23 14:33N 49°18' W 123°07'1 0.9
2016-Aug-23 13:33N 49°17' W 123°06'0 0.0
2016-Aug-23 12:33N 49°17' W 123°06'0 0.0
2016-Aug-23 11:33N 49°17' W 123°06'0 0.0
2016-Aug-23 10:32N 49°17' W 123°06'0 0.0
2016-Aug-23 09:33N 49°17' W 123°06'0 0.0
2016-Aug-23 08:33N 49°17' W 123°06'0 0.0
2016-Aug-23 07:33N 49°17' W 123°06'0 0.0
2016-Aug-23 06:33N 49°17' W 123°06'0 0.0
2016-Aug-23 05:33N 49°17' W 123°06'0 0.0
2016-Aug-23 04:33N 49°17' W 123°06'0 0.0
2016-Aug-23 03:33N 49°17' W 123°06'0 0.0
2016-Aug-23 02:32N 49°17' W 123°06'0 0.0
2016-Aug-23 01:33N 49°17' W 123°06'0 0.0
2016-Aug-23 00:33N 49°17' W 123°06'0 0.0
2016-Aug-22 23:33N 49°17' W 123°06'0 0.0
2016-Aug-22 22:31N 49°17' W 123°06'0 0.0
2016-Aug-22 21:33N 49°17' W 123°06'0 0.0
2016-Aug-22 20:33N 49°17' W 123°06'1 0.6
2016-Aug-22 19:34N 49°17' W 123°05'1110.7
2016-Aug-22 18:33N 49°24' W 122°52'8 8.0
2016-Aug-22 17:33N 49°18' W 122°59'4 4.3
2016-Aug-22 16:33N 49°17' W 123°06'0 0.0
2016-Aug-22 15:33N 49°17' W 123°06'0 0.0
2016-Aug-22 14:33N 49°17' W 123°06'0 0.0
2016-Aug-22 13:34N 49°17' W 123°06'0 0.0
2016-Aug-22 12:33N 49°17' W 123°06'0 0.0
2016-Aug-22 11:33N 49°17' W 123°06'0 0.0
2016-Aug-22 10:33N 49°17' W 123°06'0 0.0
2016-Aug-22 09:34N 49°17' W 123°06'0 0.0
2016-Aug-22 08:33N 49°17' W 123°06'0 0.0
2016-Aug-22 07:33N 49°17' W 123°06'0 0.0
2016-Aug-22 06:33N 49°17' W 123°06'0 0.0
2016-Aug-22 05:34N 49°17' W 123°06'0 0.0
2016-Aug-22 04:33N 49°17' W 123°06'0 0.0
2016-Aug-22 03:33N 49°17' W 123°06'0 0.0
2016-Aug-22 02:30N 49°17' W 123°06'0 0.0
2016-Aug-22 01:34N 49°17' W 123°06'0 0.0
2016-Aug-22 00:33N 49°17' W 123°06'0 0.0
2016-Aug-21 23:34N 49°17' W 123°06'0 0.0
2016-Aug-21 22:19N 49°17' W 123°06'0 0.0
2016-Aug-21 21:33N 49°17' W 123°06'0 0.0
2016-Aug-21 20:17N 49°17' W 123°06'0 0.1
2016-Aug-21 19:33N 49°17' W 123°06'0 0.0
2016-Aug-21 18:30N 49°17' W 123°06'0 0.0
2016-Aug-21 17:32N 49°17' W 123°06'0 0.0
2016-Aug-21 16:33N 49°17' W 123°06'0 0.0
2016-Aug-21 15:32N 49°17' W 123°06'0 0.0
2016-Aug-21 14:33N 49°17' W 123°06'0 0.0
2016-Aug-21 13:33N 49°17' W 123°06'0 0.0
2016-Aug-21 12:33N 49°17' W 123°06'0 0.0
2016-Aug-21 11:33N 49°17' W 123°06'0 0.0
2016-Aug-21 10:32N 49°17' W 123°06'0 0.0
2016-Aug-21 09:33N 49°17' W 123°06'0 0.0
2016-Aug-21 08:33N 49°17' W 123°06'0 0.0
2016-Aug-21 07:31N 49°17' W 123°06'0 0.0
2016-Aug-21 06:32N 49°17' W 123°06'0 0.0
2016-Aug-21 05:33N 49°17' W 123°06'0 0.0
2016-Aug-21 04:33N 49°17' W 123°06'0 0.0
2016-Aug-21 03:34N 49°17' W 123°06'0 0.0
2016-Aug-21 02:32N 49°17' W 123°06'0 0.0
2016-Aug-21 01:32N 49°17' W 123°06'0 0.0
2016-Aug-21 00:33N 49°17' W 123°06'0 0.0
2016-Aug-20 23:33N 49°17' W 123°06'0 0.0
2016-Aug-20 22:29N 49°17' W 123°06'0 0.0
2016-Aug-20 21:34N 49°17' W 123°06'0 0.0
2016-Aug-20 20:25N 49°17' W 123°06'0 0.0
2016-Aug-20 19:33N 49°17' W 123°06'0 0.0
2016-Aug-20 18:29N 49°17' W 123°06'0 0.1
2016-Aug-20 17:31N 49°17' W 123°06'0 0.0
2016-Aug-20 16:34N 49°17' W 123°06'0 0.0
2016-Aug-20 15:33N 49°17' W 123°06'0 0.0
2016-Aug-20 14:32N 49°17' W 123°06'0 0.0
2016-Aug-20 13:33N 49°17' W 123°06'0 0.0
2016-Aug-20 12:33N 49°17' W 123°06'0 0.0
2016-Aug-20 11:33N 49°17' W 123°06'0 0.0
2016-Aug-20 10:33N 49°17' W 123°06'0 0.0
2016-Aug-20 09:33N 49°17' W 123°06'0 0.0
2016-Aug-20 08:34N 49°17' W 123°06'0 0.0
2016-Aug-20 07:32N 49°17' W 123°06'0 0.0
2016-Aug-20 06:33N 49°17' W 123°06'0 0.0
2016-Aug-20 05:33N 49°17' W 123°06'0 0.0
2016-Aug-20 04:33N 49°17' W 123°06'0 0.0
2016-Aug-20 03:33N 49°17' W 123°06'0 0.0
2016-Aug-20 02:28N 49°17' W 123°06'0 0.0
2016-Aug-20 01:34N 49°17' W 123°06'0 0.0
2016-Aug-20 00:34N 49°17' W 123°06'0 0.0
2016-Aug-19 23:33N 49°17' W 123°06'0 0.0
2016-Aug-19 21:33N 49°17' W 123°06'0 0.0
2016-Aug-19 20:31N 49°17' W 123°06'0 0.0
2016-Aug-19 19:32N 49°17' W 123°06'0 0.0
2016-Aug-19 18:32N 49°17' W 123°06'0 0.1
2016-Aug-19 17:33N 49°17' W 123°06'3 3.4
2016-Aug-19 16:33N 49°18' W 123°01'3 3.4
2016-Aug-19 15:34N 49°17' W 123°06'0 0.0
2016-Aug-19 14:33N 49°17' W 123°06'0 0.0
2016-Aug-19 13:31N 49°17' W 123°06'0 0.0
2016-Aug-19 12:33N 49°17' W 123°06'0 0.0
2016-Aug-19 11:29N 49°17' W 123°06'0 0.0
2016-Aug-19 10:33N 49°17' W 123°06'0 0.0
2016-Aug-19 09:34N 49°17' W 123°06'0 0.0
2016-Aug-19 08:33N 49°17' W 123°06'0 0.0
2016-Aug-19 07:33N 49°17' W 123°06'0 0.0
2016-Aug-19 06:28N 49°17' W 123°06'0 0.0
2016-Aug-19 05:33N 49°17' W 123°06'0 0.0
2016-Aug-19 04:33N 49°17' W 123°06'0 0.0
2016-Aug-19 03:33N 49°17' W 123°06'0 0.0
2016-Aug-19 02:32N 49°17' W 123°06'0 0.0
2016-Aug-19 01:33N 49°17' W 123°06'0 0.0
2016-Aug-19 00:33N 49°17' W 123°06'0 0.0
2016-Aug-18 23:33N 49°17' W 123°06'0 0.0
2016-Aug-18 22:08N 49°17' W 123°06'0 0.0
2016-Aug-18 21:31N 49°17' W 123°06'0 0.0
2016-Aug-18 20:29N 49°17' W 123°06'0 0.0
2016-Aug-18 19:34N 49°17' W 123°06'0 0.0
2016-Aug-18 18:33N 49°17' W 123°06'0 0.0
2016-Aug-18 17:33N 49°17' W 123°06'1 0.6
2016-Aug-18 16:33N 49°18' W 123°06'1 0.5
2016-Aug-18 15:33N 49°17' W 123°07'0 0.4
2016-Aug-18 14:33N 49°17' W 123°06'0 0.0
2016-Aug-18 13:33N 49°17' W 123°06'0 0.0
2016-Aug-18 12:33N 49°17' W 123°06'  

Dump ship's entire track history